Weather at Jumla Airport

Public forecast

Using degrees Celsius for public forecast. Weather courtesy of forecast.io.

Closest aviation weather report (METAR) to Jumla Airport

Closest report is Pantnagar Airport, 143.3 nm (265.4 km) W. Retrieved 2020/10/01 04:30 UTC (27 minutes ago):

VIPT 010430Z 00000KT 5000 HZ NSC 29/23 Q1006

Closest aviation forecast (TAF) to Jumla Airport

Forecast is more than 12 hours old.

Closest forecast is Pantnagar Airport, 143.3 nm (265.4 km) W. Retrieved 2016/07/10 06:00 UTC (4 years ago):

TAF VIPT 100500Z 1006/1015 24005KT 4000 HZ FEW040 SCT100 TEMPO 1010/1015 2000 -TSRA SCT030 FEW035CB BKN090